METAR-berichten van nabijgelegen luchthavens

 

EHBK - Maastricht-Aachen Airport
Afstand tot station: WZW 9km
Bijgewerkt: 24-04-2018 17:55
Gedeeltelijk bewolkt
Gedeeltelijk bewolkt
 Wind vanuit WZW
Wind: WZW 19 km/h
Temperatuur: 15°C
Dauwpunt: 10°C
Vochtigheid: 72%
Luchtdruk: 1015 hPa
Bewolking: Gedeeltelijk bewolkt
Zicht: 10 km
2018/04/24 15:55 EHBK 241555Z AUTO 25010KT 200V300 9999 NSC 15/10 Q1015 NOSIG
ETNG - NATO Air Base Geilenkirchen
Afstand tot station: ONO 11km
Bijgewerkt: 24-04-2018 17:50
Meestal bewolkt
Meestal bewolkt
 Wind vanuit WZW
Wind: WZW 22 km/h
Temperatuur: 16°C
Dauwpunt: 10°C
Vochtigheid: 68%
Luchtdruk: 1015 hPa
Bewolking: Meestal bewolkt
Zicht: 10 km
Details bewolking: Licht bewolkt 884 m
Gedeeltelijk bewolkt 3048 m
Meestal bewolkt 5791 m
2018/04/24 15:50 ETNG 241550Z 25012KT 9999 FEW029 SCT100 BKN190 16/10 Q1015 NOSIG